createdAt,value
2018-10-01T00:02:23.400Z,11.34
2018-10-01T00:06:28.405Z,11.24
2018-10-01T00:10:33.493Z,11.23
2018-10-01T00:14:38.530Z,11.17
2018-10-01T00:18:43.520Z,11.16
2018-10-01T00:22:49.480Z,11.13
2018-10-01T00:26:54.812Z,11.00
2018-10-01T00:31:00.078Z,10.97
2018-10-01T00:35:05.151Z,10.88
2018-10-01T00:39:10.868Z,10.58
2018-10-01T00:43:15.865Z,10.65
2018-10-01T00:47:20.845Z,10.67
2018-10-01T00:51:25.836Z,10.74
2018-10-01T00:55:30.844Z,10.74
2018-10-01T00:59:35.908Z,10.79
2018-10-01T01:03:40.865Z,10.68
2018-10-01T01:07:46.160Z,10.69
2018-10-01T01:11:51.145Z,10.77
2018-10-01T01:15:56.137Z,10.78
2018-10-01T01:20:01.212Z,10.79
2018-10-01T01:24:06.231Z,10.86
2018-10-01T01:28:11.289Z,10.85
2018-10-01T01:32:16.341Z,10.84
2018-10-01T01:36:21.381Z,10.82
2018-10-01T01:40:26.405Z,10.82
2018-10-01T01:44:31.425Z,10.80
2018-10-01T01:48:36.449Z,10.77
2018-10-01T01:52:41.520Z,10.86
2018-10-01T01:56:46.581Z,10.84
2018-10-01T02:00:51.590Z,10.91
2018-10-01T02:04:56.603Z,10.92
2018-10-01T02:09:01.625Z,10.88
2018-10-01T02:13:06.668Z,10.91
2018-10-01T02:17:11.683Z,10.88
2018-10-01T02:21:16.674Z,10.89
2018-10-01T02:25:21.674Z,10.74
2018-10-01T02:29:26.669Z,10.21
2018-10-01T02:33:31.686Z,10.51
2018-10-01T02:37:36.719Z,10.39
2018-10-01T02:41:41.784Z,10.51
2018-10-01T02:45:46.842Z,10.34
2018-10-01T02:49:51.813Z,10.36
2018-10-01T02:54:02.073Z,10.39
2018-10-01T02:58:07.120Z,10.33
2018-10-01T03:02:12.103Z,10.44
2018-10-01T03:06:17.101Z,10.40
2018-10-01T03:10:22.143Z,10.37
2018-10-01T03:14:27.149Z,10.46
2018-10-01T03:18:32.155Z,10.45
2018-10-01T03:22:37.149Z,10.45
2018-10-01T03:26:42.161Z,10.27
2018-10-01T03:30:47.177Z,10.05
2018-10-01T03:34:52.161Z,10.15
2018-10-01T03:38:57.145Z,10.10
2018-10-01T03:43:02.740Z,9.98
2018-10-01T03:47:07.727Z,10.08
2018-10-01T03:51:12.749Z,10.12
2018-10-01T03:55:17.741Z,10.25
2018-10-01T03:59:22.749Z,10.25
2018-10-01T04:03:27.763Z,10.27
2018-10-01T04:07:32.731Z,10.24
2018-10-01T04:11:37.816Z,10.26
2018-10-01T04:15:42.929Z,10.29
2018-10-01T04:19:47.951Z,10.35
2018-10-01T04:23:52.946Z,10.48
2018-10-01T04:27:57.972Z,10.50
2018-10-01T04:32:03.002Z,10.58
2018-10-01T04:36:08.041Z,10.52
2018-10-01T04:40:14.153Z,10.52
2018-10-01T04:44:19.165Z,10.50
2018-10-01T04:48:24.197Z,10.47
2018-10-01T04:52:29.194Z,10.50
2018-10-01T04:56:34.195Z,10.49
2018-10-01T05:00:39.218Z,10.51
2018-10-01T05:04:44.236Z,10.34
2018-10-01T05:08:49.204Z,9.93
2018-10-01T05:12:54.188Z,9.91
2018-10-01T05:16:59.261Z,9.94
2018-10-01T05:21:04.339Z,9.99
2018-10-01T05:25:09.346Z,10.03
2018-10-01T05:29:14.321Z,9.94
2018-10-01T05:33:19.344Z,9.92
2018-10-01T05:37:24.340Z,9.86
2018-10-01T05:41:29.344Z,9.89
2018-10-01T05:45:34.341Z,10.02
2018-10-01T05:49:39.342Z,10.04
2018-10-01T05:53:44.336Z,10.24
2018-10-01T05:57:49.338Z,10.25
2018-10-01T06:01:54.363Z,10.34
2018-10-01T06:05:59.366Z,10.31
2018-10-01T06:10:04.386Z,10.38
2018-10-01T06:14:09.411Z,10.32
2018-10-01T06:18:14.451Z,10.78
2018-10-01T06:22:19.474Z,10.69
2018-10-01T06:26:24.457Z,10.53
2018-10-01T06:30:29.525Z,10.76
2018-10-01T06:34:34.563Z,10.86
2018-10-01T06:38:39.629Z,11.27
2018-10-01T06:42:44.648Z,11.42
2018-10-01T06:46:49.761Z,11.65
2018-10-01T06:50:54.831Z,11.74
2018-10-01T06:54:59.970Z,11.82
2018-10-01T06:59:05.030Z,11.95
2018-10-01T07:03:11.214Z,12.06
2018-10-01T07:07:16.359Z,12.14
2018-10-01T07:11:21.571Z,12.37
2018-10-01T07:15:26.631Z,12.32
2018-10-01T07:19:31.717Z,12.36
2018-10-01T07:23:36.802Z,12.42
2018-10-01T07:27:41.789Z,12.57
2018-10-01T07:31:46.937Z,12.51
2018-10-01T07:35:52.222Z,12.73
2018-10-01T07:39:57.290Z,12.86
2018-10-01T07:44:02.381Z,12.60
2018-10-01T07:48:07.470Z,12.64
2018-10-01T07:52:12.548Z,12.60
2018-10-01T07:56:17.532Z,12.77
2018-10-01T08:00:22.640Z,12.50
2018-10-01T08:04:28.307Z,12.55
2018-10-01T08:08:33.325Z,12.67
2018-10-01T08:12:38.347Z,12.64
2018-10-01T08:16:43.406Z,12.75
2018-10-01T08:20:48.441Z,12.90
2018-10-01T08:24:53.710Z,12.93
2018-10-01T08:28:58.799Z,13.05
2018-10-01T08:33:03.789Z,13.05
2018-10-01T08:37:08.834Z,13.16
2018-10-01T08:41:13.909Z,13.32
2018-10-01T08:45:18.869Z,13.43
2018-10-01T08:49:32.162Z,13.52
2018-10-01T08:53:41.710Z,13.62
2018-10-01T08:57:46.737Z,13.57
2018-10-01T09:01:51.750Z,13.69
2018-10-01T09:05:56.789Z,14.13
2018-10-01T09:10:01.833Z,14.91
2018-10-01T09:14:06.973Z,14.80
2018-10-01T09:18:11.954Z,14.39
2018-10-01T09:22:16.977Z,14.37
2018-10-01T09:26:22.047Z,14.26
2018-10-01T09:30:27.082Z,14.30
2018-10-01T09:34:32.109Z,14.37
2018-10-01T09:38:37.374Z,14.07
2018-10-01T09:42:42.445Z,14.14
2018-10-01T09:46:47.449Z,14.13
2018-10-01T09:50:52.529Z,14.14
2018-10-01T09:54:57.609Z,14.15
2018-10-01T09:59:02.643Z,14.42
2018-10-01T10:03:07.780Z,14.37
2018-10-01T10:07:12.787Z,14.35
2018-10-01T10:11:17.852Z,14.33
2018-10-01T10:15:22.822Z,14.72
2018-10-01T10:19:27.883Z,14.40
2018-10-01T10:23:32.953Z,14.62
2018-10-01T10:27:38.067Z,14.70
2018-10-01T10:35:57.477Z,15.24
2018-10-01T10:40:02.509Z,15.39
2018-10-01T10:44:07.781Z,15.74
2018-10-01T10:48:12.870Z,15.55
2018-10-01T10:52:17.819Z,15.23
2018-10-01T10:56:22.846Z,15.29
2018-10-01T11:00:27.888Z,15.14
2018-10-01T11:04:32.904Z,15.91
2018-10-01T11:08:38.015Z,16.38
2018-10-01T11:12:43.015Z,16.89
2018-10-01T11:16:48.049Z,16.59
2018-10-01T11:20:53.376Z,16.34
2018-10-01T11:24:58.297Z,16.32
2018-10-01T11:29:03.316Z,15.99
2018-10-01T11:33:08.468Z,15.84
2018-10-01T11:37:13.527Z,15.70
2018-10-01T11:41:18.821Z,16.04
2018-10-01T11:45:23.973Z,16.92
2018-10-01T11:49:28.935Z,17.03
2018-10-01T11:53:34.029Z,16.93
2018-10-01T11:57:39.223Z,16.81
2018-10-01T12:01:44.172Z,18.61
2018-10-01T12:05:49.195Z,17.11
2018-10-01T12:09:54.374Z,16.44
2018-10-01T12:13:59.309Z,16.32
2018-10-01T12:18:04.351Z,18.06
2018-10-01T12:22:09.598Z,19.05
2018-10-01T12:26:14.505Z,19.59
2018-10-01T12:30:19.570Z,19.19
2018-10-01T12:34:24.571Z,20.65
2018-10-01T12:38:29.578Z,18.57
2018-10-01T12:42:34.642Z,18.82
2018-10-01T12:46:39.641Z,18.07
2018-10-01T12:50:44.646Z,19.58
2018-10-01T12:54:49.644Z,19.57
2018-10-01T12:58:54.692Z,20.68
2018-10-01T13:02:59.703Z,20.21
2018-10-01T13:07:04.935Z,20.45
2018-10-01T13:11:09.985Z,20.47
2018-10-01T13:15:14.925Z,20.39
2018-10-01T13:19:19.924Z,21.18
2018-10-01T13:23:24.933Z,19.38
2018-10-01T13:27:29.937Z,18.91
2018-10-01T13:31:34.948Z,18.50
2018-10-01T13:35:40.013Z,17.40
2018-10-01T13:39:44.982Z,16.62
2018-10-01T13:43:50.014Z,16.02
2018-10-01T13:47:55.025Z,15.60
2018-10-01T13:52:00.027Z,15.35
2018-10-01T13:56:05.100Z,15.51
2018-10-01T14:00:10.115Z,15.82
2018-10-01T14:04:15.113Z,15.55
2018-10-01T14:08:20.137Z,15.51
2018-10-01T14:12:25.201Z,15.40
2018-10-01T14:16:30.181Z,15.43
2018-10-01T14:20:35.177Z,15.14
2018-10-01T14:24:40.297Z,14.69
2018-10-01T14:28:45.353Z,13.93
2018-10-01T14:32:50.357Z,13.76
2018-10-01T14:36:55.424Z,13.62
2018-10-01T14:41:00.440Z,13.36
2018-10-01T14:45:07.136Z,13.16
2018-10-01T14:49:12.221Z,13.23
2018-10-01T14:53:17.221Z,13.05
2018-10-01T14:57:22.949Z,12.93
2018-10-01T15:01:27.978Z,12.91
2018-10-01T15:05:32.969Z,12.68
2018-10-01T15:09:37.978Z,12.55
2018-10-01T15:13:43.068Z,12.56
2018-10-01T15:17:48.164Z,12.44
2018-10-01T15:21:53.180Z,12.47
2018-10-01T15:25:58.221Z,12.46
2018-10-01T15:30:03.229Z,12.40
2018-10-01T15:34:08.242Z,12.50
2018-10-01T15:38:13.289Z,12.54
2018-10-01T15:42:18.337Z,12.64
2018-10-01T15:46:23.362Z,12.60
2018-10-01T15:50:28.428Z,12.70
2018-10-01T15:54:33.464Z,12.71
2018-10-01T15:58:38.507Z,12.70
2018-10-01T16:02:43.510Z,12.85
2018-10-01T16:06:48.526Z,12.78
2018-10-01T16:10:53.617Z,12.60
2018-10-01T16:14:58.618Z,12.61
2018-10-01T16:19:03.639Z,12.62
2018-10-01T16:23:08.710Z,12.45
2018-10-01T16:27:13.774Z,12.49
2018-10-01T16:31:19.024Z,12.54
2018-10-01T16:35:24.077Z,12.49
2018-10-01T16:39:29.183Z,12.51
2018-10-01T16:43:34.239Z,12.38
2018-10-01T16:47:39.461Z,12.36
2018-10-01T16:51:44.481Z,12.29
2018-10-01T16:55:49.608Z,12.31
2018-10-01T16:59:54.698Z,12.24
2018-10-01T17:03:59.877Z,12.22
2018-10-01T17:08:04.962Z,12.11
2018-10-01T17:12:10.156Z,11.97
2018-10-01T17:16:15.371Z,11.85
2018-10-01T17:20:20.500Z,11.81
2018-10-01T17:24:25.590Z,11.75
2018-10-01T17:28:30.819Z,11.69
2018-10-01T17:32:39.623Z,11.51
2018-10-01T17:36:44.747Z,11.38
2018-10-01T17:40:49.835Z,11.34
2018-10-01T17:44:55.995Z,11.22
2018-10-01T17:49:01.370Z,11.14
2018-10-01T17:53:06.502Z,11.20
2018-10-01T17:57:11.630Z,11.28
2018-10-01T18:01:16.734Z,11.33
2018-10-01T18:05:21.827Z,11.23
2018-10-01T18:09:26.918Z,11.26
2018-10-01T18:13:31.950Z,11.41
2018-10-01T18:17:37.038Z,11.37
2018-10-01T18:21:42.086Z,11.37
2018-10-01T18:25:47.095Z,11.41
2018-10-01T18:29:52.137Z,11.20
2018-10-01T18:33:57.175Z,11.18
2018-10-01T18:38:02.178Z,11.28
2018-10-01T18:42:07.280Z,11.11
2018-10-01T18:46:12.236Z,11.09
2018-10-01T18:50:17.279Z,11.07
2018-10-01T18:54:22.340Z,11.00
2018-10-01T18:58:27.309Z,10.90
2018-10-01T19:02:32.410Z,11.06
2018-10-01T19:06:37.562Z,10.98
2018-10-01T19:10:42.573Z,10.93
2018-10-01T19:14:47.625Z,10.76
2018-10-01T19:18:52.590Z,10.74
2018-10-01T19:22:57.937Z,10.79
2018-10-01T19:27:03.045Z,10.72
2018-10-01T19:31:08.050Z,10.64
2018-10-01T19:35:13.150Z,10.65
2018-10-01T19:39:18.170Z,10.57
2018-10-01T19:43:23.217Z,10.51
2018-10-01T19:47:28.228Z,10.44
2018-10-01T19:51:33.319Z,10.31
2018-10-01T19:55:38.337Z,10.37
2018-10-01T19:59:43.340Z,10.33
2018-10-01T20:03:48.336Z,10.35
2018-10-01T20:07:53.608Z,10.27
2018-10-01T20:11:58.652Z,10.29
2018-10-01T20:16:03.662Z,10.03
2018-10-01T20:20:08.685Z,10.05
2018-10-01T20:24:13.760Z,9.89
2018-10-01T20:28:18.857Z,9.91
2018-10-01T20:32:23.852Z,9.65
2018-10-01T20:36:28.841Z,9.65
2018-10-01T20:40:34.403Z,9.61
2018-10-01T20:44:39.485Z,9.59
2018-10-01T20:48:44.517Z,9.66
2018-10-01T20:52:49.572Z,9.27
2018-10-01T20:56:54.552Z,9.33
2018-10-01T21:00:59.582Z,9.25
2018-10-01T21:05:04.629Z,9.21
2018-10-01T21:09:11.521Z,9.18
2018-10-01T21:13:16.552Z,9.41
2018-10-01T21:17:21.700Z,9.31
2018-10-01T21:21:26.721Z,9.34
2018-10-01T21:25:31.694Z,9.42
2018-10-01T21:29:36.706Z,9.35
2018-10-01T21:33:41.742Z,9.48
2018-10-01T21:37:46.734Z,9.37
2018-10-01T21:41:51.744Z,9.37
2018-10-01T21:45:56.763Z,9.32
2018-10-01T21:50:01.758Z,9.33
2018-10-01T21:54:06.729Z,9.16
2018-10-01T21:58:11.761Z,9.02
2018-10-01T22:02:16.798Z,9.00
2018-10-01T22:06:21.853Z,8.83
2018-10-01T22:10:26.833Z,8.74
2018-10-01T22:14:31.877Z,8.69
2018-10-01T22:18:36.877Z,8.69
2018-10-01T22:22:41.872Z,8.70
2018-10-01T22:26:46.859Z,8.61
2018-10-01T22:30:51.822Z,8.80
2018-10-01T22:34:56.823Z,8.61
2018-10-01T22:39:01.847Z,8.66
2018-10-01T22:43:06.860Z,8.63
2018-10-01T22:47:11.893Z,8.67
2018-10-01T22:51:16.880Z,8.65
2018-10-01T22:55:21.864Z,8.58
2018-10-01T22:59:26.867Z,8.48
2018-10-01T23:03:31.863Z,8.43
2018-10-01T23:07:36.859Z,8.48
2018-10-01T23:11:41.832Z,8.36
2018-10-01T23:15:46.818Z,8.40
2018-10-01T23:19:51.817Z,8.41
2018-10-01T23:23:56.809Z,8.32
2018-10-01T23:28:01.820Z,8.40
2018-10-01T23:32:06.871Z,8.32
2018-10-01T23:36:11.804Z,8.32
2018-10-01T23:40:17.182Z,8.26
2018-10-01T23:44:22.243Z,8.37
2018-10-01T23:48:27.231Z,8.25
2018-10-01T23:52:32.209Z,8.27
2018-10-01T23:56:37.236Z,8.30
